sensor_id;sensor_type;location;lat;lon;timestamp;temperature;humidity
25170;DHT22;13129;48.012;10.352;2022-10-28T03:31:26;7.90;99.90
25170;DHT22;13129;48.012;10.352;2022-10-28T03:33:52;7.90;99.90
25170;DHT22;13129;48.012;10.352;2022-10-28T03:36:18;7.90;99.90
25170;DHT22;13129;48.012;10.352;2022-10-28T03:38:44;7.90;99.90
25170;DHT22;13129;48.012;10.352;2022-10-28T03:41:09;7.80;99.90
25170;DHT22;13129;48.012;10.352;2022-10-28T03:43:35;7.80;99.90
25170;DHT22;13129;48.012;10.352;2022-10-28T03:46:00;7.80;99.90
25170;DHT22;13129;48.012;10.352;2022-10-28T03:48:26;7.80;99.90
25170;DHT22;13129;48.012;10.352;2022-10-28T03:50:52;7.80;99.90
25170;DHT22;13129;48.012;10.352;2022-10-28T03:53:19;7.80;99.90
25170;DHT22;13129;48.012;10.352;2022-10-28T03:55:53;7.80;99.90
25170;DHT22;13129;48.012;10.352;2022-10-28T03:58:19;7.70;99.90
25170;DHT22;13129;48.012;10.352;2022-10-28T04:00:47;7.70;99.90
25170;DHT22;13129;48.012;10.352;2022-10-28T04:03:13;7.70;99.90
25170;DHT22;13129;48.012;10.352;2022-10-28T04:05:39;7.70;99.90
25170;DHT22;13129;48.012;10.352;2022-10-28T04:08:04;7.60;99.90
25170;DHT22;13129;48.012;10.352;2022-10-28T04:10:30;7.60;99.90
25170;DHT22;13129;48.012;10.352;2022-10-28T04:13:03;7.60;99.90
25170;DHT22;13129;48.012;10.352;2022-10-28T04:15:29;7.60;99.90
25170;DHT22;13129;48.012;10.352;2022-10-28T04:17:55;7.60;99.90
25170;DHT22;13129;48.012;10.352;2022-10-28T04:20:20;7.60;99.90
25170;DHT22;13129;48.012;10.352;2022-10-28T04:22:46;7.60;99.90
25170;DHT22;13129;48.012;10.352;2022-10-28T04:25:12;7.60;99.90
25170;DHT22;13129;48.012;10.352;2022-10-28T04:27:37;7.60;99.90
25170;DHT22;13129;48.012;10.352;2022-10-28T04:30:04;7.60;99.90
25170;DHT22;13129;48.012;10.352;2022-10-28T04:32:30;7.60;99.90
25170;DHT22;13129;48.012;10.352;2022-10-28T04:34:56;7.60;99.90
25170;DHT22;13129;48.012;10.352;2022-10-28T04:37:21;7.60;99.90
25170;DHT22;13129;48.012;10.352;2022-10-28T04:39:47;7.60;99.90
25170;DHT22;13129;48.012;10.352;2022-10-28T04:42:13;7.60;99.90
25170;DHT22;13129;48.012;10.352;2022-10-28T04:44:39;7.50;99.90
25170;DHT22;13129;48.012;10.352;2022-10-28T04:47:04;7.60;99.90
25170;DHT22;13129;48.012;10.352;2022-10-28T04:49:30;7.60;99.90
25170;DHT22;13129;48.012;10.352;2022-10-28T04:51:56;7.60;99.90
25170;DHT22;13129;48.012;10.352;2022-10-28T04:54:21;7.50;99.90
25170;DHT22;13129;48.012;10.352;2022-10-28T04:56:47;7.50;99.90
25170;DHT22;13129;48.012;10.352;2022-10-28T04:59:17;7.60;99.90
25170;DHT22;13129;48.012;10.352;2022-10-28T05:01:43;7.60;99.90
25170;DHT22;13129;48.012;10.352;2022-10-28T05:04:08;7.60;99.90
25170;DHT22;13129;48.012;10.352;2022-10-28T05:06:34;7.60;99.90
25170;DHT22;13129;48.012;10.352;2022-10-28T05:08:59;7.60;99.90
25170;DHT22;13129;48.012;10.352;2022-10-28T05:11:25;7.50;99.90
25170;DHT22;13129;48.012;10.352;2022-10-28T05:13:51;7.50;99.90
25170;DHT22;13129;48.012;10.352;2022-10-28T05:16:18;7.50;99.90
25170;DHT22;13129;48.012;10.352;2022-10-28T05:18:44;7.50;99.90
25170;DHT22;13129;48.012;10.352;2022-10-28T05:21:10;7.40;99.90
25170;DHT22;13129;48.012;10.352;2022-10-28T05:23:35;7.40;99.90
25170;DHT22;13129;48.012;10.352;2022-10-28T05:26:01;7.40;99.90
25170;DHT22;13129;48.012;10.352;2022-10-28T05:28:27;7.50;99.90
25170;DHT22;13129;48.012;10.352;2022-10-28T05:30:52;7.50;99.90
25170;DHT22;13129;48.012;10.352;2022-10-28T05:33:18;7.60;99.90
25170;DHT22;13129;48.012;10.352;2022-10-28T05:35:44;7.70;99.90
25170;DHT22;13129;48.012;10.352;2022-10-28T05:38:09;7.80;99.90
25170;DHT22;13129;48.012;10.352;2022-10-28T05:40:35;7.80;99.90
25170;DHT22;13129;48.012;10.352;2022-10-28T05:43:01;7.80;99.90
25170;DHT22;13129;48.012;10.352;2022-10-28T05:45:27;7.70;99.90
25170;DHT22;13129;48.012;10.352;2022-10-28T05:47:53;7.70;99.90
25170;DHT22;13129;48.012;10.352;2022-10-28T05:50:19;7.60;99.90
25170;DHT22;13129;48.012;10.352;2022-10-28T05:52:49;7.60;99.90
25170;DHT22;13129;48.012;10.352;2022-10-28T05:55:17;7.60;99.90
25170;DHT22;13129;48.012;10.352;2022-10-28T05:57:45;7.60;99.90
25170;DHT22;13129;48.012;10.352;2022-10-28T06:00:11;7.60;99.90
25170;DHT22;13129;48.012;10.352;2022-10-28T06:02:37;7.60;99.90
25170;DHT22;13129;48.012;10.352;2022-10-28T06:05:02;7.60;99.90
25170;DHT22;13129;48.012;10.352;2022-10-28T06:07:29;7.70;99.90
25170;DHT22;13129;48.012;10.352;2022-10-28T06:09:55;7.70;99.90
25170;DHT22;13129;48.012;10.352;2022-10-28T06:12:20;7.80;99.90
25170;DHT22;13129;48.012;10.352;2022-10-28T06:14:46;7.90;99.90
25170;DHT22;13129;48.012;10.352;2022-10-28T06:17:11;8.00;99.90
25170;DHT22;13129;48.012;10.352;2022-10-28T06:19:37;8.20;99.90
25170;DHT22;13129;48.012;10.352;2022-10-28T06:22:03;8.30;99.90
25170;DHT22;13129;48.012;10.352;2022-10-28T06:24:28;8.30;99.90
25170;DHT22;13129;48.012;10.352;2022-10-28T06:26:55;8.40;99.90
25170;DHT22;13129;48.012;10.352;2022-10-28T06:29:21;8.50;99.90
25170;DHT22;13129;48.012;10.352;2022-10-28T06:31:46;8.70;99.90
25170;DHT22;13129;48.012;10.352;2022-10-28T06:34:12;8.90;99.90
25170;DHT22;13129;48.012;10.352;2022-10-28T06:36:38;9.00;99.90
25170;DHT22;13129;48.012;10.352;2022-10-28T06:39:05;9.10;99.90
25170;DHT22;13129;48.012;10.352;2022-10-28T06:41:31;9.30;99.90
25170;DHT22;13129;48.012;10.352;2022-10-28T06:43:56;9.40;99.90
25170;DHT22;13129;48.012;10.352;2022-10-28T06:46:22;9.50;99.90
25170;DHT22;13129;48.012;10.352;2022-10-28T06:48:48;9.60;99.90
25170;DHT22;13129;48.012;10.352;2022-10-28T06:51:13;9.80;99.90
25170;DHT22;13129;48.012;10.352;2022-10-28T06:53:41;9.90;99.90
25170;DHT22;13129;48.012;10.352;2022-10-28T06:56:08;10.00;99.90
25170;DHT22;13129;48.012;10.352;2022-10-28T06:58:33;10.20;99.90
25170;DHT22;13129;48.012;10.352;2022-10-28T07:01:04;10.30;99.90
25170;DHT22;13129;48.012;10.352;2022-10-28T07:03:30;10.40;99.90
25170;DHT22;13129;48.012;10.352;2022-10-28T07:05:57;10.50;99.90
25170;DHT22;13129;48.012;10.352;2022-10-28T07:08:24;10.60;99.90
25170;DHT22;13129;48.012;10.352;2022-10-28T07:10:57;10.70;99.90
25170;DHT22;13129;48.012;10.352;2022-10-28T07:13:24;10.80;99.90
25170;DHT22;13129;48.012;10.352;2022-10-28T07:15:57;11.00;99.90
25170;DHT22;13129;48.012;10.352;2022-10-28T07:18:25;11.30;99.90
25170;DHT22;13129;48.012;10.352;2022-10-28T07:20:51;11.60;99.90
25170;DHT22;13129;48.012;10.352;2022-10-28T07:23:17;11.80;99.90
25170;DHT22;13129;48.012;10.352;2022-10-28T07:25:43;12.10;99.90
25170;DHT22;13129;48.012;10.352;2022-10-28T07:28:10;12.30;99.90
25170;DHT22;13129;48.012;10.352;2022-10-28T07:30:35;12.60;99.90
25170;DHT22;13129;48.012;10.352;2022-10-28T07:33:03;12.90;99.90
25170;DHT22;13129;48.012;10.352;2022-10-28T07:35:30;13.20;99.90
25170;DHT22;13129;48.012;10.352;2022-10-28T07:37:56;13.40;99.90
25170;DHT22;13129;48.012;10.352;2022-10-28T07:40:23;13.50;99.90
25170;DHT22;13129;48.012;10.352;2022-10-28T07:42:49;13.50;99.90
25170;DHT22;13129;48.012;10.352;2022-10-28T07:45:15;13.60;99.90
25170;DHT22;13129;48.012;10.352;2022-10-28T07:47:42;13.60;99.90
25170;DHT22;13129;48.012;10.352;2022-10-28T07:50:08;13.60;99.90
25170;DHT22;13129;48.012;10.352;2022-10-28T07:52:34;13.60;99.90
25170;DHT22;13129;48.012;10.352;2022-10-28T07:55:00;13.50;99.90
25170;DHT22;13129;48.012;10.352;2022-10-28T07:57:26;13.50;99.90
25170;DHT22;13129;48.012;10.352;2022-10-28T07:59:52;13.50;99.90
25170;DHT22;13129;48.012;10.352;2022-10-28T08:02:20;13.60;99.90
25170;DHT22;13129;48.012;10.352;2022-10-28T08:04:47;13.50;99.90
25170;DHT22;13129;48.012;10.352;2022-10-28T08:07:13;13.60;99.90
25170;DHT22;13129;48.012;10.352;2022-10-28T08:09:40;13.50;99.90
25170;DHT22;13129;48.012;10.352;2022-10-28T08:12:06;13.40;99.90
25170;DHT22;13129;48.012;10.352;2022-10-28T08:14:32;13.50;99.90
25170;DHT22;13129;48.012;10.352;2022-10-28T08:16:59;13.60;99.90
25170;DHT22;13129;48.012;10.352;2022-10-28T08:19:24;13.60;99.90
25170;DHT22;13129;48.012;10.352;2022-10-28T08:21:50;13.70;99.90
25170;DHT22;13129;48.012;10.352;2022-10-28T08:24:16;13.70;99.90
25170;DHT22;13129;48.012;10.352;2022-10-28T08:26:41;13.70;99.90
25170;DHT22;13129;48.012;10.352;2022-10-28T08:29:09;13.90;99.90
25170;DHT22;13129;48.012;10.352;2022-10-28T08:31:36;13.80;99.90
25170;DHT22;13129;48.012;10.352;2022-10-28T08:34:02;13.80;99.90
25170;DHT22;13129;48.012;10.352;2022-10-28T08:36:28;13.90;99.90
25170;DHT22;13129;48.012;10.352;2022-10-28T08:38:53;13.90;99.90
25170;DHT22;13129;48.012;10.352;2022-10-28T08:41:30;14.10;99.90
25170;DHT22;13129;48.012;10.352;2022-10-28T08:44:13;14.20;99.90
25170;DHT22;13129;48.012;10.352;2022-10-28T08:47:00;14.30;99.90
25170;DHT22;13129;48.012;10.352;2022-10-28T08:49:31;14.50;99.90
25170;DHT22;13129;48.012;10.352;2022-10-28T08:52:04;14.70;99.90
25170;DHT22;13129;48.012;10.352;2022-10-28T08:54:45;14.90;99.90
25170;DHT22;13129;48.012;10.352;2022-10-28T08:59:54;15.50;99.90
25170;DHT22;13129;48.012;10.352;2022-10-28T09:02:31;15.80;99.90
25170;DHT22;13129;48.012;10.352;2022-10-28T09:05:15;16.10;99.90
25170;DHT22;13129;48.012;10.352;2022-10-28T09:07:41;16.40;99.90
25170;DHT22;13129;48.012;10.352;2022-10-28T09:10:11;16.90;99.90
25170;DHT22;13129;48.012;10.352;2022-10-28T09:21:03;18.40;99.90
25170;DHT22;13129;48.012;10.352;2022-10-28T09:23:34;18.40;99.90
25170;DHT22;13129;48.012;10.352;2022-10-28T09:31:46;18.40;99.90
25170;DHT22;13129;48.012;10.352;2022-10-28T09:36:53;18.60;99.90
25170;DHT22;13129;48.012;10.352;2022-10-28T09:39:25;18.50;99.90
25170;DHT22;13129;48.012;10.352;2022-10-28T09:41:52;18.30;99.90
25170;DHT22;13129;48.012;10.352;2022-10-28T09:44:27;18.00;99.90
25170;DHT22;13129;48.012;10.352;2022-10-28T09:46:55;17.80;99.90
25170;DHT22;13129;48.012;10.352;2022-10-28T09:49:26;17.70;99.90
25170;DHT22;13129;48.012;10.352;2022-10-28T09:54:35;17.90;99.90
25170;DHT22;13129;48.012;10.352;2022-10-28T09:57:02;18.10;99.90
25170;DHT22;13129;48.012;10.352;2022-10-28T09:59:28;18.30;99.90
25170;DHT22;13129;48.012;10.352;2022-10-28T10:01:54;18.50;99.90
25170;DHT22;13129;48.012;10.352;2022-10-28T10:04:22;18.90;99.90
25170;DHT22;13129;48.012;10.352;2022-10-28T10:06:51;19.30;99.90
25170;DHT22;13129;48.012;10.352;2022-10-28T10:09:27;19.80;99.90
25170;DHT22;13129;48.012;10.352;2022-10-28T10:12:04;20.70;99.90
25170;DHT22;13129;48.012;10.352;2022-10-28T10:14:41;21.80;99.90
25170;DHT22;13129;48.012;10.352;2022-10-28T10:17:23;23.00;99.90
25170;DHT22;13129;48.012;10.352;2022-10-28T10:20:17;23.00;99.90
25170;DHT22;13129;48.012;10.352;2022-10-28T10:22:44;22.40;99.90
25170;DHT22;13129;48.012;10.352;2022-10-28T10:25:29;21.80;99.90
25170;DHT22;13129;48.012;10.352;2022-10-28T10:28:03;21.30;99.90
25170;DHT22;13129;48.012;10.352;2022-10-28T10:30:37;21.20;99.90
25170;DHT22;13129;48.012;10.352;2022-10-28T10:33:05;21.50;99.90
25170;DHT22;13129;48.012;10.352;2022-10-28T10:35:34;22.10;99.90
25170;DHT22;13129;48.012;10.352;2022-10-28T10:38:03;23.40;99.90
25170;DHT22;13129;48.012;10.352;2022-10-28T10:40:34;24.90;99.90
25170;DHT22;13129;48.012;10.352;2022-10-28T10:48:15;29.80;92.00
25170;DHT22;13129;48.012;10.352;2022-10-28T10:50:45;30.60;86.70
25170;DHT22;13129;48.012;10.352;2022-10-28T10:53:20;30.60;82.40
25170;DHT22;13129;48.012;10.352;2022-10-28T10:55:57;30.20;81.10
25170;DHT22;13129;48.012;10.352;2022-10-28T10:58:39;29.20;81.80
25170;DHT22;13129;48.012;10.352;2022-10-28T11:01:06;27.60;84.10
25170;DHT22;13129;48.012;10.352;2022-10-28T11:03:37;26.70;88.10
25170;DHT22;13129;48.012;10.352;2022-10-28T11:06:05;26.00;90.00
25170;DHT22;13129;48.012;10.352;2022-10-28T11:08:35;25.50;91.30
25170;DHT22;13129;48.012;10.352;2022-10-28T11:11:18;25.00;92.70
25170;DHT22;13129;48.012;10.352;2022-10-28T11:13:45;24.90;93.30
25170;DHT22;13129;48.012;10.352;2022-10-28T11:16:22;24.70;93.50
25170;DHT22;13129;48.012;10.352;2022-10-28T11:18:51;24.50;93.90
25170;DHT22;13129;48.012;10.352;2022-10-28T11:21:29;23.90;94.20
25170;DHT22;13129;48.012;10.352;2022-10-28T11:26:52;23.60;96.00
25170;DHT22;13129;48.012;10.352;2022-10-28T11:29:21;23.50;96.30
25170;DHT22;13129;48.012;10.352;2022-10-28T11:40:29;22.90;96.60
25170;DHT22;13129;48.012;10.352;2022-10-28T11:43:15;22.80;96.90
25170;DHT22;13129;48.012;10.352;2022-10-28T11:51:06;22.70;97.20
25170;DHT22;13129;48.012;10.352;2022-10-28T11:53:42;22.70;97.30
25170;DHT22;13129;48.012;10.352;2022-10-28T11:56:40;22.60;97.40
25170;DHT22;13129;48.012;10.352;2022-10-28T12:04:30;22.10;97.50
25170;DHT22;13129;48.012;10.352;2022-10-28T12:24:28;22.00;97.30
25170;DHT22;13129;48.012;10.352;2022-10-28T12:27:00;22.10;97.00
25170;DHT22;13129;48.012;10.352;2022-10-28T12:29:37;22.20;96.80
25170;DHT22;13129;48.012;10.352;2022-10-28T12:32:13;22.20;96.90
25170;DHT22;13129;48.012;10.352;2022-10-28T12:34:47;22.40;96.70
25170;DHT22;13129;48.012;10.352;2022-10-28T12:37:23;22.60;96.40
25170;DHT22;13129;48.012;10.352;2022-10-28T12:42:57;22.70;95.70
25170;DHT22;13129;48.012;10.352;2022-10-28T12:45:24;22.50;95.80
25170;DHT22;13129;48.012;10.352;2022-10-28T12:50:39;22.30;95.70
25170;DHT22;13129;48.012;10.352;2022-10-28T12:53:38;22.30;95.60
25170;DHT22;13129;48.012;10.352;2022-10-28T12:56:11;22.20;95.70
25170;DHT22;13129;48.012;10.352;2022-10-28T12:58:50;22.20;96.00
25170;DHT22;13129;48.012;10.352;2022-10-28T13:01:19;22.10;96.10
25170;DHT22;13129;48.012;10.352;2022-10-28T13:03:48;22.10;96.20
25170;DHT22;13129;48.012;10.352;2022-10-28T13:25:46;21.90;95.90
25170;DHT22;13129;48.012;10.352;2022-10-28T13:28:17;21.90;95.70
25170;DHT22;13129;48.012;10.352;2022-10-28T13:31:12;21.70;96.10
25170;DHT22;13129;48.012;10.352;2022-10-28T13:33:47;21.60;96.50
25170;DHT22;13129;48.012;10.352;2022-10-28T13:39:45;21.50;97.20
25170;DHT22;13129;48.012;10.352;2022-10-28T13:42:43;21.40;97.70
25170;DHT22;13129;48.012;10.352;2022-10-28T13:45:48;21.20;98.20
25170;DHT22;13129;48.012;10.352;2022-10-28T13:48:45;20.90;98.70
25170;DHT22;13129;48.012;10.352;2022-10-28T13:53:57;20.60;99.50
25170;DHT22;13129;48.012;10.352;2022-10-28T13:56:28;20.60;99.90
25170;DHT22;13129;48.012;10.352;2022-10-28T13:59:03;20.50;99.90
25170;DHT22;13129;48.012;10.352;2022-10-28T14:01:50;20.50;99.90
25170;DHT22;13129;48.012;10.352;2022-10-28T14:06:46;20.70;99.90
25170;DHT22;13129;48.012;10.352;2022-10-28T14:09:22;20.70;99.90
25170;DHT22;13129;48.012;10.352;2022-10-28T14:12:29;20.70;99.90
25170;DHT22;13129;48.012;10.352;2022-10-28T14:15:00;20.70;99.90
25170;DHT22;13129;48.012;10.352;2022-10-28T14:17:36;20.50;99.90
25170;DHT22;13129;48.012;10.352;2022-10-28T14:20:17;20.30;99.90
25170;DHT22;13129;48.012;10.352;2022-10-28T14:22:46;20.20;99.90
25170;DHT22;13129;48.012;10.352;2022-10-28T14:50:15;19.40;99.90
25170;DHT22;13129;48.012;10.352;2022-10-28T14:52:42;19.40;99.90
25170;DHT22;13129;48.012;10.352;2022-10-28T14:55:19;19.40;99.90
25170;DHT22;13129;48.012;10.352;2022-10-28T14:57:46;19.30;99.90
25170;DHT22;13129;48.012;10.352;2022-10-28T15:00:35;19.20;99.90
25170;DHT22;13129;48.012;10.352;2022-10-28T15:03:08;19.20;99.90
25170;DHT22;13129;48.012;10.352;2022-10-28T15:05:34;19.20;99.80
25170;DHT22;13129;48.012;10.352;2022-10-28T15:08:02;19.20;99.80
25170;DHT22;13129;48.012;10.352;2022-10-28T15:10:30;19.10;99.80
25170;DHT22;13129;48.012;10.352;2022-10-28T15:12:58;19.10;99.80
25170;DHT22;13129;48.012;10.352;2022-10-28T15:15:29;19.10;99.80
25170;DHT22;13129;48.012;10.352;2022-10-28T15:17:58;19.00;99.90
25170;DHT22;13129;48.012;10.352;2022-10-28T15:20:33;19.00;99.90
25170;DHT22;13129;48.012;10.352;2022-10-28T15:23:19;18.90;99.90
25170;DHT22;13129;48.012;10.352;2022-10-28T15:25:45;18.90;99.90
25170;DHT22;13129;48.012;10.352;2022-10-28T15:28:28;18.80;99.90
25170;DHT22;13129;48.012;10.352;2022-10-28T15:30:54;18.80;99.90
25170;DHT22;13129;48.012;10.352;2022-10-28T15:35:52;18.50;99.90
25170;DHT22;13129;48.012;10.352;2022-10-28T15:40:53;18.10;99.90
25170;DHT22;13129;48.012;10.352;2022-10-28T15:43:27;17.90;99.90
25170;DHT22;13129;48.012;10.352;2022-10-28T15:45:53;17.80;99.90
25170;DHT22;13129;48.012;10.352;2022-10-28T15:48:23;17.70;99.90
25170;DHT22;13129;48.012;10.352;2022-10-28T15:51:10;17.60;99.90
25170;DHT22;13129;48.012;10.352;2022-10-28T15:53:43;17.50;99.90
25170;DHT22;13129;48.012;10.352;2022-10-28T15:58:59;17.20;99.90
25170;DHT22;13129;48.012;10.352;2022-10-28T16:03:52;16.90;99.90
25170;DHT22;13129;48.012;10.352;2022-10-28T16:06:26;16.70;99.90
25170;DHT22;13129;48.012;10.352;2022-10-28T16:09:17;16.60;99.90
25170;DHT22;13129;48.012;10.352;2022-10-28T16:11:46;16.40;99.90
25170;DHT22;13129;48.012;10.352;2022-10-28T16:14:34;16.20;99.90
25170;DHT22;13129;48.012;10.352;2022-10-28T16:17:19;16.10;99.90
25170;DHT22;13129;48.012;10.352;2022-10-28T16:20:00;15.90;99.90
25170;DHT22;13129;48.012;10.352;2022-10-28T16:22:28;15.80;99.90
25170;DHT22;13129;48.012;10.352;2022-10-28T16:24:55;15.70;99.90
25170;DHT22;13129;48.012;10.352;2022-10-28T16:27:23;15.60;99.90
25170;DHT22;13129;48.012;10.352;2022-10-28T16:29:49;15.50;99.90
25170;DHT22;13129;48.012;10.352;2022-10-28T16:32:23;15.50;99.90
25170;DHT22;13129;48.012;10.352;2022-10-28T16:34:49;15.50;99.90
25170;DHT22;13129;48.012;10.352;2022-10-28T16:37:25;15.50;99.90
25170;DHT22;13129;48.012;10.352;2022-10-28T16:39:51;15.50;99.90
25170;DHT22;13129;48.012;10.352;2022-10-28T16:42:18;15.50;99.90
25170;DHT22;13129;48.012;10.352;2022-10-28T16:44:44;15.50;99.90
25170;DHT22;13129;48.012;10.352;2022-10-28T16:47:15;15.50;99.90
25170;DHT22;13129;48.012;10.352;2022-10-28T16:49:41;15.50;99.90
25170;DHT22;13129;48.012;10.352;2022-10-28T16:52:17;15.40;99.90
25170;DHT22;13129;48.012;10.352;2022-10-28T16:54:48;15.30;99.90
25170;DHT22;13129;48.012;10.352;2022-10-28T16:57:15;15.20;99.90
25170;DHT22;13129;48.012;10.352;2022-10-28T16:59:42;15.10;99.90
25170;DHT22;13129;48.012;10.352;2022-10-28T17:02:29;15.10;99.90
25170;DHT22;13129;48.012;10.352;2022-10-28T17:04:56;14.90;99.90
25170;DHT22;13129;48.012;10.352;2022-10-28T17:07:21;14.80;99.90
25170;DHT22;13129;48.012;10.352;2022-10-28T17:09:47;14.70;99.90
25170;DHT22;13129;48.012;10.352;2022-10-28T17:12:22;14.60;99.90
25170;DHT22;13129;48.012;10.352;2022-10-28T17:14:48;14.50;99.90
25170;DHT22;13129;48.012;10.352;2022-10-28T17:17:14;14.40;99.90
25170;DHT22;13129;48.012;10.352;2022-10-28T17:19:40;14.20;99.90
25170;DHT22;13129;48.012;10.352;2022-10-28T17:22:07;14.10;99.90
25170;DHT22;13129;48.012;10.352;2022-10-28T17:24:33;14.00;99.90
25170;DHT22;13129;48.012;10.352;2022-10-28T17:27:00;13.90;99.90
25170;DHT22;13129;48.012;10.352;2022-10-28T17:29:25;13.80;99.90
25170;DHT22;13129;48.012;10.352;2022-10-28T17:31:51;13.80;99.90
25170;DHT22;13129;48.012;10.352;2022-10-28T17:34:17;13.80;99.90
25170;DHT22;13129;48.012;10.352;2022-10-28T17:36:43;13.80;99.90
25170;DHT22;13129;48.012;10.352;2022-10-28T17:39:08;13.90;99.90
25170;DHT22;13129;48.012;10.352;2022-10-28T17:41:34;13.90;99.90
25170;DHT22;13129;48.012;10.352;2022-10-28T17:44:00;13.90;99.90
25170;DHT22;13129;48.012;10.352;2022-10-28T17:46:25;13.90;99.90
25170;DHT22;13129;48.012;10.352;2022-10-28T17:48:51;14.00;99.90
25170;DHT22;13129;48.012;10.352;2022-10-28T17:51:17;14.00;99.90
25170;DHT22;13129;48.012;10.352;2022-10-28T17:53:45;14.00;99.90
25170;DHT22;13129;48.012;10.352;2022-10-28T17:56:11;14.00;99.90
25170;DHT22;13129;48.012;10.352;2022-10-28T17:58:37;14.10;99.90
25170;DHT22;13129;48.012;10.352;2022-10-28T18:01:05;14.10;99.90
25170;DHT22;13129;48.012;10.352;2022-10-28T18:03:31;14.10;99.90
25170;DHT22;13129;48.012;10.352;2022-10-28T18:06:09;14.10;99.90
25170;DHT22;13129;48.012;10.352;2022-10-28T18:08:37;14.10;99.90
25170;DHT22;13129;48.012;10.352;2022-10-28T18:11:04;14.10;99.90
25170;DHT22;13129;48.012;10.352;2022-10-28T18:13:32;14.10;99.90
25170;DHT22;13129;48.012;10.352;2022-10-28T18:16:05;14.00;99.90
25170;DHT22;13129;48.012;10.352;2022-10-28T18:18:32;13.90;99.90
25170;DHT22;13129;48.012;10.352;2022-10-28T18:20:58;13.80;99.90
25170;DHT22;13129;48.012;10.352;2022-10-28T18:23:23;13.60;99.90
25170;DHT22;13129;48.012;10.352;2022-10-28T18:28:29;13.50;99.90
25170;DHT22;13129;48.012;10.352;2022-10-28T18:30:54;13.40;99.90
25170;DHT22;13129;48.012;10.352;2022-10-28T18:33:27;13.30;99.90
25170;DHT22;13129;48.012;10.352;2022-10-28T18:35:57;13.30;99.90
25170;DHT22;13129;48.012;10.352;2022-10-28T18:38:22;13.30;99.90
25170;DHT22;13129;48.012;10.352;2022-10-28T18:40:48;13.20;99.90
25170;DHT22;13129;48.012;10.352;2022-10-28T18:43:14;13.20;99.90
25170;DHT22;13129;48.012;10.352;2022-10-28T18:45:40;13.20;99.90
25170;DHT22;13129;48.012;10.352;2022-10-28T18:48:06;13.10;99.90
25170;DHT22;13129;48.012;10.352;2022-10-28T18:50:31;13.10;99.90
25170;DHT22;13129;48.012;10.352;2022-10-28T18:52:57;13.10;99.90
25170;DHT22;13129;48.012;10.352;2022-10-28T18:55:23;13.00;99.90
25170;DHT22;13129;48.012;10.352;2022-10-28T18:57:51;13.10;99.90
25170;DHT22;13129;48.012;10.352;2022-10-28T19:00:18;13.10;99.90
25170;DHT22;13129;48.012;10.352;2022-10-28T19:02:43;13.20;99.90
25170;DHT22;13129;48.012;10.352;2022-10-28T19:05:09;13.20;99.90
25170;DHT22;13129;48.012;10.352;2022-10-28T19:07:35;13.30;99.90
25170;DHT22;13129;48.012;10.352;2022-10-28T19:10:01;13.30;99.90
25170;DHT22;13129;48.012;10.352;2022-10-28T19:12:27;13.30;99.90
25170;DHT22;13129;48.012;10.352;2022-10-28T19:14:52;13.40;99.90
25170;DHT22;13129;48.012;10.352;2022-10-28T19:17:18;13.40;99.90
25170;DHT22;13129;48.012;10.352;2022-10-28T19:19:43;13.50;99.90
25170;DHT22;13129;48.012;10.352;2022-10-28T19:22:11;13.50;99.90
25170;DHT22;13129;48.012;10.352;2022-10-28T19:24:37;13.50;99.90
25170;DHT22;13129;48.012;10.352;2022-10-28T19:27:03;13.50;99.90
25170;DHT22;13129;48.012;10.352;2022-10-28T19:29:29;13.50;99.90
25170;DHT22;13129;48.012;10.352;2022-10-28T19:31:55;13.50;99.90
25170;DHT22;13129;48.012;10.352;2022-10-28T19:34:20;13.50;99.90
25170;DHT22;13129;48.012;10.352;2022-10-28T19:36:46;13.50;99.90
25170;DHT22;13129;48.012;10.352;2022-10-28T19:39:12;13.50;99.90
25170;DHT22;13129;48.012;10.352;2022-10-28T19:41:37;13.50;99.90
25170;DHT22;13129;48.012;10.352;2022-10-28T19:44:03;13.40;99.90
25170;DHT22;13129;48.012;10.352;2022-10-28T19:46:31;13.20;99.90
25170;DHT22;13129;48.012;10.352;2022-10-28T19:48:59;13.10;99.90
25170;DHT22;13129;48.012;10.352;2022-10-28T19:51:28;13.00;99.90
25170;DHT22;13129;48.012;10.352;2022-10-28T19:53:56;13.00;99.90
25170;DHT22;13129;48.012;10.352;2022-10-28T19:56:22;13.00;99.90
25170;DHT22;13129;48.012;10.352;2022-10-28T19:58:51;13.10;99.90
25170;DHT22;13129;48.012;10.352;2022-10-28T20:01:22;13.10;99.90
25170;DHT22;13129;48.012;10.352;2022-10-28T20:03:52;13.10;99.90
25170;DHT22;13129;48.012;10.352;2022-10-28T20:06:20;12.90;99.90
25170;DHT22;13129;48.012;10.352;2022-10-28T20:08:47;12.80;99.90
25170;DHT22;13129;48.012;10.352;2022-10-28T20:11:18;12.70;99.90
25170;DHT22;13129;48.012;10.352;2022-10-28T20:13:54;12.60;99.90
25170;DHT22;13129;48.012;10.352;2022-10-28T20:16:20;12.50;99.90
25170;DHT22;13129;48.012;10.352;2022-10-28T20:18:46;12.40;99.90
25170;DHT22;13129;48.012;10.352;2022-10-28T20:21:14;12.30;99.90
25170;DHT22;13129;48.012;10.352;2022-10-28T20:23:47;12.20;99.90
25170;DHT22;13129;48.012;10.352;2022-10-28T20:26:20;12.10;99.90
25170;DHT22;13129;48.012;10.352;2022-10-28T20:28:46;12.10;99.90
25170;DHT22;13129;48.012;10.352;2022-10-28T20:31:14;12.00;99.90
25170;DHT22;13129;48.012;10.352;2022-10-28T20:33:42;11.90;99.90
25170;DHT22;13129;48.012;10.352;2022-10-28T20:36:27;11.80;99.90
25170;DHT22;13129;48.012;10.352;2022-10-28T20:38:54;11.70;99.90
25170;DHT22;13129;48.012;10.352;2022-10-28T20:41:21;11.60;99.90
25170;DHT22;13129;48.012;10.352;2022-10-28T20:43:51;11.50;99.90
25170;DHT22;13129;48.012;10.352;2022-10-28T20:46:18;11.40;99.90
25170;DHT22;13129;48.012;10.352;2022-10-28T20:48:44;11.40;99.90
25170;DHT22;13129;48.012;10.352;2022-10-28T20:51:10;11.40;99.90
25170;DHT22;13129;48.012;10.352;2022-10-28T20:53:36;11.40;99.90
25170;DHT22;13129;48.012;10.352;2022-10-28T20:56:02;11.30;99.90
25170;DHT22;13129;48.012;10.352;2022-10-28T20:58:30;11.30;99.90
25170;DHT22;13129;48.012;10.352;2022-10-28T21:01:04;11.30;99.90
25170;DHT22;13129;48.012;10.352;2022-10-28T21:03:30;11.30;99.90
25170;DHT22;13129;48.012;10.352;2022-10-28T21:05:55;11.20;99.90
25170;DHT22;13129;48.012;10.352;2022-10-28T21:08:21;11.20;99.90
25170;DHT22;13129;48.012;10.352;2022-10-28T21:10:47;11.20;99.90
25170;DHT22;13129;48.012;10.352;2022-10-28T21:13:12;11.10;99.90
25170;DHT22;13129;48.012;10.352;2022-10-28T21:15:39;11.10;99.90
25170;DHT22;13129;48.012;10.352;2022-10-28T21:18:06;11.10;99.90
25170;DHT22;13129;48.012;10.352;2022-10-28T21:20:34;11.00;99.90
25170;DHT22;13129;48.012;10.352;2022-10-28T21:23:00;11.00;99.90